Vremea acum in Zlatna - Romania

Vrei sa afli care e starea vremii acum in Arad - Romania? Dorim sa iti furnizam starea vremii pentru Arad - Romania. Starea vremii Arad - Romania pentru astazi.

Vremea acum in Zlatna

Temperatura: 24.3 °C

Este: Partial innorat
Se simte ca: 24.9 °C
Innorat: 29 %
Precipitatii: %
Presiune atmosferica: 1011 hPa
Umiditate: 39%
Vizibilitate: 10 km
Vantul bate din WSW cu 9.4 km/h

Evolutia vremii in Zlatna pe ore

Ora: 09:00
Temperatura: °C
Sansa de precipitatii: %
Ora Descriere Temp Se simte Precipitatii Umiditate Vant
00:00Senin10.1°10°0%75%W 4.7 KM/H
01:00Senin9.5°9.3°0%76%WSW 4.7 KM/H
02:00Senin8.6°0%77%WSW 5 KM/H
03:00Senin8.8°8.4°0%77%W 5 KM/H
04:00Senin8.7°8.5°0%76%W 4.3 KM/H
05:00Partial innorat8.5°7.8°0%75%WSW 5.8 KM/H
06:00Partial innorat8.5°8.2°0%73%WSW 4.7 KM/H
07:00Partial innorat10.6°10.8°0%69%WSW 4 KM/H
08:00Senin13.6°14°0%60%SSW 4.3 KM/H
09:00Senin15.9°15.9°0%52%SSW 5.8 KM/H
10:00Senin18.2°18.2°0%46%SW 3.6 KM/H
11:00Senin20.6°20.6°0%43%SW 6.1 KM/H
12:00Partial innorat22.6°24.2°0%41%SW 9.4 KM/H
13:00Partial innorat24.3°24.9°0%39%WSW 9.4 KM/H
14:00Partial innorat24.4°25°0%40%WSW 10.1 KM/H
15:00Partial innorat22.4°24.4°0%47%WSW 7.9 KM/H
16:00Partial innorat23.7°24.8°0%43%W 6.8 KM/H
17:00Senin22.8°24.7°0%51%W 4.7 KM/H
18:00Senin20.9°20.9°0%57%NW 3.2 KM/H
19:00Partial innorat19.7°19.7°0%57%NNW 3.6 KM/H
20:00Partial innorat18.2°18.2°0%60%NNW 1.4 KM/H
21:00Partial innorat17.1°17.1°0%64%SW 1.1 KM/H
22:00Innorat17.1°17.1°0%65%WSW 3.2 KM/H
23:00Partial innorat18.4°18.4°0%60%WSW 6.1 KM/H




tutorials